createdAt,value
2023-01-30T00:00:35.800Z,15.23
2023-01-30T00:03:23.089Z,13.30
2023-01-30T00:06:09.876Z,7.70
2023-01-30T00:08:56.585Z,6.77
2023-01-30T00:11:44.797Z,13.33
2023-01-30T00:14:31.623Z,12.27
2023-01-30T00:17:18.701Z,14.77
2023-01-30T00:20:06.144Z,11.17
2023-01-30T00:23:00.807Z,11.07
2023-01-30T00:25:47.330Z,13.57
2023-01-30T00:28:35.842Z,11.33
2023-01-30T00:31:24.201Z,14.03
2023-01-30T00:34:10.922Z,16.53
2023-01-30T00:37:07.738Z,12.07
2023-01-30T00:39:55.138Z,11.43
2023-01-30T00:42:59.293Z,12.80
2023-01-30T00:46:05.741Z,16.80
2023-01-30T00:48:52.981Z,17.90
2023-01-30T00:51:39.862Z,15.23
2023-01-30T00:54:26.573Z,21.50
2023-01-30T00:57:13.411Z,18.20
2023-01-30T01:00:00.279Z,15.73
2023-01-30T01:02:48.562Z,20.87
2023-01-30T01:05:35.308Z,10.70
2023-01-30T01:08:22.774Z,14.03
2023-01-30T01:11:09.267Z,8.40
2023-01-30T01:13:57.040Z,17.27
2023-01-30T01:16:44.057Z,18.87
2023-01-30T01:19:32.482Z,17.90
2023-01-30T01:22:20.653Z,19.03
2023-01-30T01:25:08.627Z,16.63
2023-01-30T01:27:56.092Z,23.17
2023-01-30T01:30:42.779Z,16.17
2023-01-30T01:33:31.158Z,19.93
2023-01-30T01:36:42.462Z,13.90
2023-01-30T01:39:45.864Z,21.37
2023-01-30T01:42:35.884Z,22.03
2023-01-30T01:45:25.733Z,13.00
2023-01-30T01:48:17.083Z,21.63
2023-01-30T01:51:06.715Z,23.43
2023-01-30T01:53:59.947Z,18.23
2023-01-30T01:56:49.185Z,9.77
2023-01-30T01:59:43.687Z,21.37
2023-01-30T02:02:30.309Z,14.77
2023-01-30T02:05:19.271Z,17.73
2023-01-30T02:08:09.652Z,19.17
2023-01-30T02:11:01.844Z,18.00
2023-01-30T02:13:49.401Z,19.60
2023-01-30T02:16:37.979Z,17.87
2023-01-30T02:19:32.843Z,26.17
2023-01-30T02:22:36.703Z,18.90
2023-01-30T02:25:46.558Z,20.90
2023-01-30T02:29:00.677Z,21.60
2023-01-30T02:31:52.061Z,15.57
2023-01-30T02:34:46.872Z,17.50
2023-01-30T02:37:48.360Z,22.40
2023-01-30T02:40:48.280Z,22.80
2023-01-30T02:43:41.505Z,20.00
2023-01-30T02:46:35.601Z,21.97
2023-01-30T02:49:28.788Z,26.53
2023-01-30T02:52:18.440Z,21.97
2023-01-30T02:55:10.856Z,28.60
2023-01-30T02:57:58.796Z,22.03
2023-01-30T03:01:03.761Z,25.93
2023-01-30T03:04:18.497Z,19.67
2023-01-30T03:07:28.680Z,29.83
2023-01-30T03:10:40.311Z,25.57
2023-01-30T03:13:35.963Z,25.73
2023-01-30T03:16:27.682Z,24.03
2023-01-30T03:19:15.450Z,19.63
2023-01-30T03:22:02.371Z,26.37
2023-01-30T03:24:52.330Z,26.23
2023-01-30T03:27:40.335Z,25.63
2023-01-30T03:30:27.855Z,27.17
2023-01-30T03:33:23.460Z,20.43
2023-01-30T03:36:11.083Z,19.50
2023-01-30T03:38:57.595Z,21.90
2023-01-30T03:41:46.721Z,23.63
2023-01-30T03:44:36.484Z,28.80
2023-01-30T03:47:23.131Z,27.40
2023-01-30T03:50:12.313Z,25.10
2023-01-30T03:52:59.079Z,22.63
2023-01-30T03:55:46.122Z,27.40
2023-01-30T03:58:34.655Z,17.23
2023-01-30T04:01:36.796Z,22.87
2023-01-30T04:04:24.542Z,19.27
2023-01-30T04:07:11.068Z,29.50
2023-01-30T04:09:59.985Z,27.20
2023-01-30T04:12:46.978Z,13.80
2023-01-30T04:15:35.451Z,11.07
2023-01-30T04:18:40.977Z,11.30
2023-01-30T04:21:37.823Z,21.53
2023-01-30T04:24:24.564Z,27.23
2023-01-30T04:27:11.435Z,24.37
2023-01-30T04:30:09.482Z,21.57
2023-01-30T04:32:57.205Z,14.60
2023-01-30T04:35:52.971Z,21.40
2023-01-30T04:38:40.521Z,24.13
2023-01-30T04:41:27.659Z,20.73
2023-01-30T04:44:19.166Z,22.40
2023-01-30T04:47:10.063Z,24.10
2023-01-30T04:49:58.154Z,15.70
2023-01-30T04:52:44.889Z,23.50
2023-01-30T04:55:33.590Z,23.67
2023-01-30T04:58:20.577Z,27.97
2023-01-30T05:01:15.242Z,11.93
2023-01-30T05:04:04.229Z,13.53
2023-01-30T05:06:52.607Z,28.27
2023-01-30T05:09:39.025Z,24.00
2023-01-30T05:12:25.828Z,25.33
2023-01-30T05:15:13.572Z,15.73
2023-01-30T05:18:01.145Z,23.13
2023-01-30T05:20:47.862Z,23.67
2023-01-30T05:23:36.251Z,18.33
2023-01-30T05:26:23.146Z,24.93
2023-01-30T05:29:11.499Z,27.80
2023-01-30T05:31:58.234Z,24.20
2023-01-30T05:34:45.288Z,25.93
2023-01-30T05:37:31.963Z,17.53
2023-01-30T05:40:20.389Z,21.87
2023-01-30T05:43:07.467Z,20.80
2023-01-30T05:45:54.787Z,27.53
2023-01-30T05:48:41.451Z,27.03
2023-01-30T05:51:28.714Z,12.33
2023-01-30T05:54:15.475Z,32.10
2023-01-30T05:57:03.618Z,24.73
2023-01-30T05:59:50.448Z,19.30
2023-01-30T06:02:38.357Z,20.93
2023-01-30T06:05:25.053Z,25.07
2023-01-30T06:08:12.029Z,25.33
2023-01-30T06:11:01.951Z,23.37
2023-01-30T06:13:49.983Z,30.23
2023-01-30T06:16:36.796Z,22.07
2023-01-30T06:19:23.566Z,24.83
2023-01-30T06:22:10.460Z,25.60
2023-01-30T06:24:57.235Z,25.80
2023-01-30T06:27:44.474Z,24.17
2023-01-30T06:30:32.786Z,19.00
2023-01-30T06:33:19.420Z,23.97
2023-01-30T06:36:06.531Z,20.10
2023-01-30T06:38:53.455Z,25.03
2023-01-30T06:41:40.297Z,24.73
2023-01-30T06:44:27.069Z,24.93
2023-01-30T06:47:15.342Z,27.37
2023-01-30T06:50:02.172Z,25.77
2023-01-30T06:52:50.491Z,25.60
2023-01-30T06:55:38.512Z,24.37
2023-01-30T06:58:26.788Z,17.83
2023-01-30T07:01:14.946Z,27.07
2023-01-30T07:04:02.819Z,27.90
2023-01-30T07:06:50.330Z,22.23
2023-01-30T07:09:37.021Z,22.67
2023-01-30T07:12:24.759Z,23.60
2023-01-30T07:15:11.903Z,28.37
2023-01-30T07:17:58.632Z,17.10
2023-01-30T07:20:49.503Z,24.43
2023-01-30T07:23:36.370Z,19.57
2023-01-30T07:26:23.855Z,17.07
2023-01-30T07:29:10.613Z,19.93
2023-01-30T07:31:57.484Z,19.67
2023-01-30T07:34:44.344Z,18.20
2023-01-30T07:37:32.538Z,20.60
2023-01-30T07:40:20.777Z,14.10
2023-01-30T07:43:09.845Z,14.23
2023-01-30T07:45:56.548Z,16.53
2023-01-30T07:48:45.443Z,9.47
2023-01-30T07:51:32.684Z,9.53
2023-01-30T07:54:21.947Z,9.30
2023-01-30T07:57:08.608Z,10.40
2023-01-30T07:59:55.522Z,11.23
2023-01-30T08:02:42.344Z,8.47
2023-01-30T08:05:29.121Z,11.03
2023-01-30T08:08:16.086Z,7.63
2023-01-30T08:11:04.021Z,8.03
2023-01-30T08:13:50.772Z,8.80
2023-01-30T08:16:39.077Z,11.50
2023-01-30T08:19:25.809Z,8.23
2023-01-30T08:22:12.730Z,8.53
2023-01-30T08:24:59.421Z,7.47
2023-01-30T08:27:47.479Z,6.87
2023-01-30T08:30:34.514Z,6.43
2023-01-30T08:33:21.698Z,7.53
2023-01-30T08:36:08.772Z,7.00
2023-01-30T08:38:55.492Z,6.23
2023-01-30T08:41:43.341Z,5.63
2023-01-30T08:44:31.386Z,7.30
2023-01-30T08:47:18.182Z,8.23
2023-01-30T08:50:06.054Z,5.67
2023-01-30T08:52:52.825Z,6.10
2023-01-30T08:55:39.538Z,6.63
2023-01-30T08:58:27.455Z,7.87
2023-01-30T09:01:15.820Z,6.37
2023-01-30T09:04:02.409Z,7.60
2023-01-30T09:06:49.404Z,6.53
2023-01-30T09:09:36.542Z,7.40
2023-01-30T09:12:23.327Z,6.47
2023-01-30T09:15:11.405Z,8.53
2023-01-30T09:17:59.712Z,5.43
2023-01-30T09:20:46.309Z,7.70
2023-01-30T09:23:33.047Z,6.23
2023-01-30T09:26:19.828Z,8.17
2023-01-30T09:29:06.748Z,8.63
2023-01-30T09:31:53.781Z,5.97
2023-01-30T09:34:41.975Z,8.70
2023-01-30T09:37:28.696Z,5.63
2023-01-30T09:40:17.525Z,10.10
2023-01-30T09:43:27.699Z,8.13
2023-01-30T09:46:25.533Z,6.73
2023-01-30T09:49:24.378Z,6.47
2023-01-30T09:52:24.751Z,5.23
2023-01-30T09:55:19.618Z,4.63
2023-01-30T09:58:06.671Z,7.13
2023-01-30T10:00:58.189Z,13.27
2023-01-30T10:03:57.104Z,2.70
2023-01-30T10:06:57.050Z,6.93
2023-01-30T10:09:52.891Z,4.37
2023-01-30T10:12:52.206Z,5.30
2023-01-30T10:15:49.594Z,4.67
2023-01-30T10:18:57.907Z,7.57
2023-01-30T10:21:49.499Z,4.80
2023-01-30T10:24:50.994Z,4.53
2023-01-30T10:27:39.629Z,4.60
2023-01-30T10:30:26.850Z,7.40
2023-01-30T10:33:21.617Z,3.07
2023-01-30T10:36:13.094Z,3.43
2023-01-30T10:39:04.154Z,8.63
2023-01-30T10:42:02.185Z,3.77
2023-01-30T10:44:49.466Z,7.90
2023-01-30T10:47:48.158Z,6.50
2023-01-30T10:50:46.475Z,5.37
2023-01-30T10:53:38.919Z,11.83
2023-01-30T10:56:38.325Z,8.50
2023-01-30T10:59:35.917Z,5.67
2023-01-30T11:02:26.933Z,12.73
2023-01-30T11:05:16.499Z,9.10
2023-01-30T11:08:03.543Z,13.00
2023-01-30T11:10:51.186Z,6.77
2023-01-30T11:13:37.663Z,10.43
2023-01-30T11:16:26.151Z,10.13
2023-01-30T11:19:22.275Z,10.87
2023-01-30T11:22:15.881Z,12.40
2023-01-30T11:25:06.388Z,4.20
2023-01-30T11:27:55.742Z,14.33
2023-01-30T11:30:42.980Z,11.67
2023-01-30T11:33:35.765Z,10.83
2023-01-30T11:36:29.050Z,7.90
2023-01-30T11:39:25.204Z,12.33
2023-01-30T11:42:12.024Z,15.30
2023-01-30T11:45:16.134Z,12.97
2023-01-30T11:48:31.636Z,7.30
2023-01-30T11:51:22.006Z,10.33
2023-01-30T11:54:15.132Z,8.93
2023-01-30T11:57:05.761Z,16.50
2023-01-30T11:59:57.835Z,11.43
2023-01-30T12:02:48.092Z,16.97
2023-01-30T12:05:42.322Z,10.43
2023-01-30T12:08:42.095Z,6.60
2023-01-30T12:11:45.165Z,11.50
2023-01-30T12:14:40.319Z,14.17
2023-01-30T12:17:36.425Z,8.87
2023-01-30T12:20:31.005Z,8.50
2023-01-30T12:23:25.886Z,16.93
2023-01-30T12:26:19.817Z,18.63
2023-01-30T12:29:18.487Z,25.40
2023-01-30T12:32:10.001Z,10.73
2023-01-30T12:34:56.541Z,13.97
2023-01-30T12:37:56.788Z,17.43
2023-01-30T12:40:53.623Z,14.03
2023-01-30T12:43:56.443Z,11.97
2023-01-30T12:46:57.527Z,8.73
2023-01-30T12:49:58.955Z,15.33
2023-01-30T12:53:05.856Z,17.43
2023-01-30T12:56:06.412Z,20.20
2023-01-30T12:59:00.701Z,9.97
2023-01-30T13:02:00.586Z,12.77
2023-01-30T13:05:04.592Z,6.60
2023-01-30T13:08:11.042Z,19.37
2023-01-30T13:11:06.018Z,15.57
2023-01-30T13:14:00.213Z,15.10
2023-01-30T13:17:07.020Z,8.47
2023-01-30T13:20:01.586Z,11.20
2023-01-30T13:22:55.573Z,9.23
2023-01-30T13:25:48.144Z,14.73
2023-01-30T13:28:38.843Z,11.93
2023-01-30T13:31:32.512Z,5.20
2023-01-30T13:34:26.542Z,11.63
2023-01-30T13:37:15.173Z,6.80
2023-01-30T13:40:06.187Z,6.07
2023-01-30T13:42:58.730Z,10.87
2023-01-30T13:45:48.284Z,12.23
2023-01-30T13:48:47.224Z,11.07
2023-01-30T13:51:43.402Z,14.23
2023-01-30T13:54:49.875Z,8.17
2023-01-30T13:57:48.082Z,5.87
2023-01-30T14:00:36.765Z,10.60
2023-01-30T14:03:26.222Z,12.73
2023-01-30T14:06:32.348Z,9.17
2023-01-30T14:09:22.312Z,18.00
2023-01-30T14:12:20.070Z,8.43
2023-01-30T14:15:24.289Z,4.03
2023-01-30T14:18:36.533Z,7.80
2023-01-30T14:21:26.448Z,6.00
2023-01-30T14:24:25.069Z,4.03
2023-01-30T14:27:27.556Z,3.10
2023-01-30T14:30:36.437Z,4.97
2023-01-30T14:33:48.785Z,7.67
2023-01-30T14:36:38.790Z,2.33
2023-01-30T14:39:42.165Z,7.77
2023-01-30T14:42:31.105Z,4.47
2023-01-30T14:45:38.343Z,7.63
2023-01-30T14:48:34.319Z,5.97
2023-01-30T14:51:25.011Z,3.83
2023-01-30T14:54:40.250Z,7.33
2023-01-30T14:57:34.950Z,1.30
2023-01-30T15:00:29.373Z,6.50
2023-01-30T15:03:21.390Z,4.03
2023-01-30T15:06:08.601Z,3.20
2023-01-30T15:08:56.033Z,5.23
2023-01-30T15:11:50.277Z,7.30
2023-01-30T15:14:47.697Z,7.40
2023-01-30T15:17:52.726Z,3.97
2023-01-30T15:20:56.343Z,2.70
2023-01-30T15:24:11.259Z,6.67
2023-01-30T15:27:08.378Z,4.43
2023-01-30T15:30:10.214Z,2.00
2023-01-30T15:33:10.482Z,4.63
2023-01-30T15:35:57.141Z,2.17
2023-01-30T15:38:43.886Z,5.77
2023-01-30T15:41:32.608Z,5.00
2023-01-30T15:44:44.236Z,6.77
2023-01-30T15:47:51.283Z,4.60
2023-01-30T15:50:38.650Z,5.30
2023-01-30T15:53:29.088Z,4.03
2023-01-30T15:56:20.469Z,3.23
2023-01-30T15:59:08.349Z,2.03
2023-01-30T16:02:03.683Z,6.63
2023-01-30T16:04:50.409Z,5.07
2023-01-30T16:07:37.183Z,3.73
2023-01-30T16:10:26.585Z,3.93
2023-01-30T16:13:13.072Z,3.50
2023-01-30T16:16:04.572Z,5.17
2023-01-30T16:18:56.936Z,4.47
2023-01-30T16:21:48.442Z,4.37
2023-01-30T16:24:39.504Z,4.30
2023-01-30T16:27:32.368Z,5.67
2023-01-30T16:30:28.445Z,1.33
2023-01-30T16:33:18.862Z,4.00
2023-01-30T16:36:29.303Z,4.73
2023-01-30T16:39:31.676Z,1.83
2023-01-30T16:42:25.802Z,4.83
2023-01-30T16:45:54.987Z,3.43
2023-01-30T16:48:45.227Z,5.27
2023-01-30T16:51:34.009Z,4.87
2023-01-30T16:54:27.644Z,7.13
2023-01-30T16:57:28.755Z,5.37
2023-01-30T17:00:24.154Z,2.77
2023-01-30T17:03:23.802Z,3.80
2023-01-30T17:06:20.879Z,10.83
2023-01-30T17:09:51.075Z,5.57
2023-01-30T17:12:44.026Z,3.67
2023-01-30T17:15:38.327Z,4.50
2023-01-30T17:18:25.366Z,4.37
2023-01-30T17:21:15.428Z,6.67
2023-01-30T17:24:04.627Z,4.47
2023-01-30T17:26:59.163Z,7.67
2023-01-30T17:29:47.318Z,12.33
2023-01-30T17:32:34.009Z,6.60
2023-01-30T17:35:21.263Z,9.93
2023-01-30T17:38:08.155Z,5.83
2023-01-30T17:40:58.939Z,5.93
2023-01-30T17:43:48.074Z,11.87
2023-01-30T17:46:38.707Z,7.67
2023-01-30T17:49:26.515Z,9.67
2023-01-30T17:52:15.156Z,9.07
2023-01-30T17:55:01.608Z,5.80
2023-01-30T17:57:49.812Z,6.13
2023-01-30T18:00:37.659Z,15.90
2023-01-30T18:03:25.428Z,11.03
2023-01-30T18:06:14.381Z,5.47
2023-01-30T18:09:01.710Z,6.77
2023-01-30T18:11:49.416Z,6.23
2023-01-30T18:14:36.060Z,12.47
2023-01-30T18:17:37.334Z,4.93
2023-01-30T18:20:25.520Z,4.33
2023-01-30T18:23:17.740Z,8.33
2023-01-30T18:26:12.802Z,7.73
2023-01-30T18:29:00.731Z,8.57
2023-01-30T18:31:49.641Z,14.30
2023-01-30T18:34:39.383Z,7.43
2023-01-30T18:37:26.856Z,8.43
2023-01-30T18:40:16.321Z,9.80
2023-01-30T18:43:03.411Z,14.80
2023-01-30T18:46:02.942Z,18.63
2023-01-30T18:48:50.933Z,8.27
2023-01-30T18:51:40.484Z,11.83
2023-01-30T18:54:28.685Z,12.37
2023-01-30T18:57:16.446Z,17.03
2023-01-30T19:00:07.699Z,10.23
2023-01-30T19:02:55.535Z,11.80
2023-01-30T19:05:42.667Z,11.47
2023-01-30T19:08:33.520Z,9.93
2023-01-30T19:11:40.218Z,14.83
2023-01-30T19:14:28.674Z,10.13
2023-01-30T19:17:17.465Z,9.63
2023-01-30T19:20:11.145Z,14.43
2023-01-30T19:22:58.959Z,16.23
2023-01-30T19:25:54.907Z,17.77
2023-01-30T19:28:45.439Z,5.57
2023-01-30T19:31:32.598Z,16.27
2023-01-30T19:34:19.790Z,13.67
2023-01-30T19:37:07.461Z,18.23
2023-01-30T19:39:53.932Z,12.77
2023-01-30T19:42:44.463Z,12.83
2023-01-30T19:45:32.812Z,16.43
2023-01-30T19:48:19.461Z,15.37
2023-01-30T19:51:13.517Z,3.90
2023-01-30T19:54:02.154Z,5.37
2023-01-30T19:56:49.418Z,10.80
2023-01-30T19:59:38.914Z,13.07
2023-01-30T20:02:25.417Z,19.87
2023-01-30T20:05:12.061Z,5.33
2023-01-30T20:07:58.902Z,15.67
2023-01-30T20:10:45.660Z,18.00
2023-01-30T20:13:32.716Z,7.07
2023-01-30T20:16:22.644Z,14.57
2023-01-30T20:19:12.961Z,18.43
2023-01-30T20:21:59.733Z,14.93
2023-01-30T20:24:46.259Z,14.33
2023-01-30T20:27:37.887Z,9.73
2023-01-30T20:30:24.241Z,16.17
2023-01-30T20:33:12.445Z,15.07
2023-01-30T20:36:02.018Z,11.93
2023-01-30T20:38:49.857Z,11.53
2023-01-30T20:41:37.807Z,10.27
2023-01-30T20:44:25.868Z,14.00
2023-01-30T20:47:12.913Z,10.20
2023-01-30T20:50:01.044Z,5.70
2023-01-30T20:52:51.548Z,8.87
2023-01-30T20:55:38.351Z,15.07
2023-01-30T20:58:25.113Z,10.87
2023-01-30T21:01:17.906Z,12.93
2023-01-30T21:04:07.171Z,10.70
2023-01-30T21:06:55.162Z,20.20
2023-01-30T21:09:41.903Z,13.03
2023-01-30T21:12:30.735Z,11.30
2023-01-30T21:15:17.631Z,10.67
2023-01-30T21:18:04.108Z,20.03
2023-01-30T21:20:51.319Z,5.77
2023-01-30T21:23:39.236Z,16.57
2023-01-30T21:26:27.697Z,6.33
2023-01-30T21:29:15.762Z,9.13
2023-01-30T21:32:02.697Z,10.47
2023-01-30T21:34:56.343Z,13.73
2023-01-30T21:38:03.047Z,8.90
2023-01-30T21:41:28.077Z,15.80
2023-01-30T21:44:19.827Z,9.03
2023-01-30T21:47:15.064Z,10.80
2023-01-30T21:50:04.260Z,13.10
2023-01-30T21:52:54.864Z,10.90
2023-01-30T21:55:44.548Z,5.17
2023-01-30T21:58:37.803Z,11.93
2023-01-30T22:01:26.737Z,5.87
2023-01-30T22:04:19.155Z,11.77
2023-01-30T22:07:09.665Z,10.73
2023-01-30T22:09:58.385Z,17.73
2023-01-30T22:12:49.448Z,7.53
2023-01-30T22:15:39.943Z,18.13
2023-01-30T22:18:42.884Z,6.13
2023-01-30T22:21:41.608Z,6.20
2023-01-30T22:24:33.623Z,4.50
2023-01-30T22:27:26.355Z,5.97
2023-01-30T22:30:24.899Z,6.63
2023-01-30T22:33:15.049Z,9.57
2023-01-30T22:36:05.804Z,6.20
2023-01-30T22:38:53.061Z,13.43
2023-01-30T22:41:39.514Z,5.70
2023-01-30T22:44:26.330Z,9.17
2023-01-30T22:47:12.860Z,8.67
2023-01-30T22:50:00.884Z,15.57
2023-01-30T22:52:47.634Z,19.00
2023-01-30T22:55:35.914Z,15.03
2023-01-30T22:58:22.415Z,14.67
2023-01-30T23:01:12.187Z,20.23
2023-01-30T23:04:01.216Z,18.73
2023-01-30T23:06:51.937Z,9.00
2023-01-30T23:09:39.126Z,12.90
2023-01-30T23:12:43.435Z,9.40
2023-01-30T23:15:31.782Z,9.53
2023-01-30T23:18:37.076Z,17.10
2023-01-30T23:21:25.259Z,14.37
2023-01-30T23:24:15.424Z,15.30
2023-01-30T23:27:03.279Z,12.77
2023-01-30T23:29:49.846Z,5.67
2023-01-30T23:32:36.590Z,10.67
2023-01-30T23:35:23.706Z,8.87
2023-01-30T23:38:19.279Z,17.93
2023-01-30T23:41:09.785Z,8.70
2023-01-30T23:43:57.840Z,20.70
2023-01-30T23:46:44.808Z,18.43
2023-01-30T23:49:31.243Z,11.40
2023-01-30T23:52:18.838Z,7.27
2023-01-30T23:55:06.807Z,5.53
2023-01-30T23:57:54.661Z,7.20
